Time;durP1;ratioP1;P1;durP2;ratioP2;P2;SDS_P1;SDS_P2;PMS_P1;PMS_P2;Temp;Humidity;BMP_temperature;BMP_pressure;BME280_temperature;BME280_humidity;BME280_pressure;Samples;Min_cycle;Max_cycle;Signal;HPM_P1;HPM_P2
2021/06/26 00:01:41;;;;;;;14.68;11.85;;;17.10;61.30;;;;;;4955612;28;20040;-79
2021/06/26 00:04:07;;;;;;;19.20;13.18;;;17.10;61.30;;;;;;4904556;28;20047;-79
2021/06/26 00:06:35;;;;;;;13.80;12.23;;;17.00;61.30;;;;;;4945357;28;20040;-79
2021/06/26 00:09:03;;;;;;;11.63;10.13;;;17.00;61.20;;;;;;4927541;29;20032;-79
2021/06/26 00:11:29;;;;;;;12.63;10.95;;;17.00;61.50;;;;;;4937041;28;20046;-79
2021/06/26 00:13:55;;;;;;;12.93;10.10;;;17.20;63.50;;;;;;4933296;28;20040;-78
2021/06/26 00:16:20;;;;;;;15.77;13.18;;;17.20;63.10;;;;;;4921521;28;20158;-79
2021/06/26 00:18:46;;;;;;;15.73;11.40;;;17.00;62.50;;;;;;4979752;28;20024;-79
2021/06/26 00:21:11;;;;;;;13.43;12.02;;;16.90;63.00;;;;;;4911364;28;20042;-79
2021/06/26 00:23:37;;;;;;;11.85;10.57;;;16.70;63.00;;;;;;4896458;28;20032;-79
2021/06/26 00:26:02;;;;;;;15.35;12.57;;;16.70;63.70;;;;;;4928758;28;21167;-79
2021/06/26 00:28:28;;;;;;;11.65;9.98;;;16.60;63.20;;;;;;4911837;28;20036;-79
2021/06/26 00:30:53;;;;;;;11.88;10.00;;;16.70;64.00;;;;;;4901204;28;20036;-79
2021/06/26 00:33:19;;;;;;;14.27;12.45;;;16.80;64.00;;;;;;4918421;28;20036;-78
2021/06/26 00:35:44;;;;;;;14.70;12.32;;;16.60;64.20;;;;;;4902114;28;20032;-79
2021/06/26 00:38:10;;;;;;;11.23;9.52;;;16.60;64.00;;;;;;4932957;28;20026;-79
2021/06/26 00:40:35;;;;;;;18.10;13.70;;;16.50;64.40;;;;;;4915954;28;20028;-78
2021/06/26 00:43:01;;;;;;;12.77;10.48;;;16.60;63.80;;;;;;4927997;28;20064;-79
2021/06/26 00:45:27;;;;;;;12.75;10.27;;;16.40;64.40;;;;;;4924237;28;20032;-78
2021/06/26 00:47:52;;;;;;;12.10;9.98;;;16.50;64.10;;;;;;4974786;28;20503;-79
2021/06/26 00:50:28;;;;;;;13.43;9.63;;;16.40;65.70;;;;;;4924967;28;20484;-78
2021/06/26 00:52:53;;;;;;;14.43;12.20;;;16.40;65.90;;;;;;4985963;28;20387;-78
2021/06/26 00:55:19;;;;;;;18.15;13.68;;;16.30;64.90;;;;;;4920706;28;20041;-79
2021/06/26 00:57:54;;;;;;;19.80;15.13;;;16.10;66.10;;;;;;4893732;28;20039;-78
2021/06/26 01:00:20;;;;;;;21.52;16.63;;;16.00;65.90;;;;;;4927002;28;20090;-79
2021/06/26 01:02:45;;;;;;;25.90;16.08;;;15.90;66.00;;;;;;4915228;28;20035;-78
2021/06/26 01:05:11;;;;;;;24.17;16.85;;;15.70;66.10;;;;;;4924962;28;20035;-78
2021/06/26 01:07:37;;;;;;;22.90;16.77;;;15.70;67.20;;;;;;4942139;28;20028;-79
2021/06/26 01:10:03;;;;;;;23.98;17.00;;;15.70;68.00;;;;;;4921712;28;20051;-78
2021/06/26 01:12:29;;;;;;;22.33;16.95;;;15.70;71.80;;;;;;4934234;28;20127;-78
2021/06/26 01:14:54;;;;;;;23.55;17.65;;;15.60;71.90;;;;;;4920252;28;20141;-78
2021/06/26 01:17:20;;;;;;;24.00;17.52;;;15.60;70.30;;;;;;4937681;28;20035;-78
2021/06/26 01:19:46;;;;;;;19.67;16.25;;;15.60;72.20;;;;;;4927262;28;20111;-78
2021/06/26 01:22:11;;;;;;;21.98;16.70;;;15.60;70.10;;;;;;4936106;28;20098;-79
2021/06/26 01:24:37;;;;;;;21.98;16.90;;;15.50;70.10;;;;;;4928041;28;20039;-78
2021/06/26 01:27:03;;;;;;;22.65;16.88;;;15.30;69.90;;;;;;4953086;28;20032;-78
2021/06/26 01:29:29;;;;;;;19.88;16.33;;;15.20;74.20;;;;;;4914196;28;20212;-78
2021/06/26 01:31:55;;;;;;;25.00;16.83;;;15.30;70.10;;;;;;4911020;28;20077;-79
2021/06/26 01:34:21;;;;;;;25.40;17.35;;;15.20;72.60;;;;;;4988709;28;20032;-78
2021/06/26 01:36:46;;;;;;;24.27;19.10;;;15.20;70.50;;;;;;4886642;28;20439;-78
2021/06/26 01:39:12;;;;;;;26.50;18.05;;;15.20;69.70;;;;;;4970065;28;20036;-78
2021/06/26 01:41:38;;;;;;;23.05;18.48;;;15.10;70.20;;;;;;4990183;28;20035;-79
2021/06/26 01:44:03;;;;;;;22.45;18.15;;;15.10;70.30;;;;;;4901578;28;20031;-77
2021/06/26 01:46:29;;;;;;;16.50;14.20;;;15.10;71.90;;;;;;4918629;28;20040;-78
2021/06/26 01:49:06;;;;;;;25.27;17.40;;;15.10;70.10;;;;;;4904994;28;20550;-78
2021/06/26 01:51:33;;;;;;;26.05;17.15;;;15.10;69.30;;;;;;4982299;28;20029;-79
2021/06/26 01:53:59;;;;;;;24.85;17.25;;;15.00;71.60;;;;;;4938813;28;20028;-79
2021/06/26 01:56:24;;;;;;;28.75;17.77;;;14.90;72.30;;;;;;4921795;28;20054;-78
2021/06/26 01:58:50;;;;;;;13.65;11.60;;;14.80;78.90;;;;;;4912365;28;20036;-79
2021/06/26 02:01:15;;;;;;;12.70;11.38;;;15.00;72.00;;;;;;4934323;28;20044;-78
2021/06/26 02:03:41;;;;;;;15.65;13.95;;;15.10;75.10;;;;;;4958055;28;20032;-78
2021/06/26 02:06:06;;;;;;;19.10;14.45;;;15.20;73.40;;;;;;4892987;28;20040;-77
2021/06/26 02:08:32;;;;;;;13.18;11.20;;;15.10;73.70;;;;;;4926343;28;20358;-77
2021/06/26 02:10:57;;;;;;;17.13;13.60;;;15.00;71.30;;;;;;4898019;28;20465;-77
2021/06/26 02:13:23;;;;;;;13.73;12.30;;;14.90;71.50;;;;;;4922151;28;20032;-78
2021/06/26 02:15:49;;;;;;;17.02;11.68;;;15.00;73.60;;;;;;4930896;28;20036;-78
2021/06/26 02:18:14;;;;;;;19.85;15.13;;;15.10;74.40;;;;;;4993923;28;20504;-77
2021/06/26 02:20:40;;;;;;;17.30;13.73;;;15.00;73.80;;;;;;4936928;28;20047;-77
2021/06/26 02:23:05;;;;;;;19.80;14.95;;;14.90;74.50;;;;;;4917213;28;20063;-78
2021/06/26 02:25:31;;;;;;;18.73;15.45;;;14.90;74.00;;;;;;4908598;28;20408;-77
2021/06/26 02:27:56;;;;;;;22.88;17.27;;;14.90;74.00;;;;;;4970404;28;20028;-77
2021/06/26 02:30:22;;;;;;;26.58;18.25;;;14.70;77.50;;;;;;4930813;28;20551;-77
2021/06/26 02:32:47;;;;;;;21.48;17.73;;;14.60;80.20;;;;;;4938467;28;20024;-77
2021/06/26 02:35:13;;;;;;;16.90;13.82;;;14.50;79.40;;;;;;4908976;28;20028;-77
2021/06/26 02:37:39;;;;;;;21.05;14.68;;;14.60;78.70;;;;;;4944908;28;20032;-76
2021/06/26 02:40:05;;;;;;;20.77;15.13;;;14.70;78.20;;;;;;4928534;28;20090;-77
2021/06/26 02:42:30;;;;;;;21.27;16.23;;;14.70;76.60;;;;;;4931280;28;20032;-76
2021/06/26 02:44:56;;;;;;;22.05;17.77;;;14.50;75.40;;;;;;4976607;28;20025;-77
2021/06/26 02:47:22;;;;;;;21.70;17.80;;;14.40;78.20;;;;;;4924917;28;20026;-77
2021/06/26 02:49:47;;;;;;;26.00;19.02;;;14.30;86.00;;;;;;4973908;28;20031;-76
2021/06/26 02:52:13;;;;;;;24.42;18.92;;;14.20;88.70;;;;;;4935546;28;20061;-77
2021/06/26 02:54:38;;;;;;;21.92;18.60;;;14.20;90.80;;;;;;4925866;28;20046;-80
2021/06/26 02:57:04;;;;;;;20.92;15.95;;;14.20;85.70;;;;;;4938922;28;20044;-80
2021/06/26 02:59:30;;;;;;;19.05;17.05;;;14.40;81.80;;;;;;4959606;28;20036;-80
2021/06/26 03:01:55;;;;;;;25.13;17.40;;;14.40;79.40;;;;;;4936667;28;20020;-80
2021/06/26 03:04:21;;;;;;;23.52;17.90;;;14.20;87.00;;;;;;5005732;28;20048;-79
2021/06/26 03:06:46;;;;;;;24.77;19.27;;;14.10;90.80;;;;;;4912586;28;20063;-80
2021/06/26 03:09:12;;;;;;;25.45;19.00;;;14.00;90.00;;;;;;5008680;28;20036;-80
2021/06/26 03:11:37;;;;;;;25.23;19.10;;;14.00;92.00;;;;;;4908879;28;20074;-79
2021/06/26 03:14:03;;;;;;;26.45;17.63;;;14.10;90.30;;;;;;4968312;28;20039;-80
2021/06/26 03:16:29;;;;;;;21.90;16.27;;;14.10;85.70;;;;;;4941085;28;20032;-80
2021/06/26 03:18:54;;;;;;;21.92;18.42;;;14.20;84.30;;;;;;4956026;28;20067;-79
2021/06/26 03:21:20;;;;;;;25.67;19.88;;;14.10;87.10;;;;;;4960616;28;20040;-80
2021/06/26 03:23:46;;;;;;;25.73;19.95;;;14.00;88.10;;;;;;4930847;28;20024;-80
2021/06/26 03:26:11;;;;;;;27.60;20.50;;;13.80;90.20;;;;;;4938261;28;20048;-78
2021/06/26 03:28:37;;;;;;;30.23;22.35;;;13.80;91.30;;;;;;4993088;28;20039;-79
2021/06/26 03:31:04;;;;;;;18.02;14.82;;;13.90;89.90;;;;;;4944752;28;20263;-80
2021/06/26 03:33:30;;;;;;;16.33;14.48;;;14.00;85.00;;;;;;4925499;28;20492;-79
2021/06/26 03:35:55;;;;;;;15.77;12.32;;;14.20;85.40;;;;;;5013709;28;20057;-79
2021/06/26 03:38:21;;;;;;;16.15;14.40;;;14.30;85.50;;;;;;5004218;28;20040;-80
2021/06/26 03:40:46;;;;;;;21.90;16.75;;;14.30;84.50;;;;;;5009356;28;20046;-79
2021/06/26 03:43:12;;;;;;;21.55;17.17;;;14.20;84.30;;;;;;4992126;28;20390;-79
2021/06/26 03:45:37;;;;;;;23.73;16.85;;;14.00;84.90;;;;;;4926057;28;20551;-81
2021/06/26 03:48:03;;;;;;;15.32;12.93;;;13.90;84.60;;;;;;4944696;28;20580;-81
2021/06/26 03:50:32;;;;;;;21.65;16.27;;;14.00;84.30;;;;;;4929173;28;20052;-81
2021/06/26 03:52:58;;;;;;;22.48;17.15;;;14.10;86.60;;;;;;4938328;28;20043;-80
2021/06/26 03:55:23;;;;;;;26.15;18.52;;;14.10;85.70;;;;;;4958447;28;20031;-81
2021/06/26 03:57:49;;;;;;;22.17;18.63;;;13.90;84.70;;;;;;4998554;28;20099;-81
2021/06/26 04:00:15;;;;;;;26.02;20.02;;;13.90;90.50;;;;;;4935341;28;20115;-79
2021/06/26 04:02:41;;;;;;;29.52;20.73;;;13.90;91.90;;;;;;4937772;28;20039;-79
2021/06/26 04:05:07;;;;;;;25.30;19.77;;;14.00;87.20;;;;;;4964174;28;20070;-79
2021/06/26 04:07:33;;;;;;;27.90;21.65;;;14.00;91.10;;;;;;4924629;28;20040;-79
2021/06/26 04:09:58;;;;;;;23.73;19.77;;;14.10;85.10;;;;;;5026219;28;20040;-80
2021/06/26 04:12:24;;;;;;;30.52;20.27;;;14.20;83.80;;;;;;4940750;28;20308;-80
2021/06/26 04:14:49;;;;;;;24.88;19.35;;;14.40;83.60;;;;;;4921164;28;20111;-79
2021/06/26 04:17:15;;;;;;;19.70;15.48;;;14.50;83.20;;;;;;4962706;28;20032;-79
2021/06/26 04:19:40;;;;;;;27.85;18.27;;;14.60;85.00;;;;;;4958245;28;20040;-79
2021/06/26 04:22:06;;;;;;;17.42;14.23;;;14.70;83.80;;;;;;4953241;28;20062;-79
2021/06/26 04:24:31;;;;;;;19.13;16.77;;;14.80;85.30;;;;;;4936896;28;20031;-79
2021/06/26 04:26:57;;;;;;;19.67;16.83;;;14.90;82.90;;;;;;4957839;28;20101;-80
2021/06/26 04:29:23;;;;;;;15.95;13.43;;;14.90;86.00;;;;;;4963230;28;20047;-80
2021/06/26 04:31:49;;;;;;;15.85;12.13;;;15.00;82.40;;;;;;4919290;28;20572;-81
2021/06/26 04:34:14;;;;;;;18.70;14.82;;;15.10;82.50;;;;;;4992310;28;20047;-81
2021/06/26 04:36:41;;;;;;;17.75;13.65;;;15.20;84.00;;;;;;4998255;28;20032;-81
2021/06/26 04:39:07;;;;;;;24.23;19.27;;;15.20;82.50;;;;;;4944860;28;20020;-81
2021/06/26 04:41:36;;;;;;;25.17;18.48;;;15.20;83.10;;;;;;4946826;28;20088;-80
2021/06/26 04:44:01;;;;;;;20.23;16.08;;;15.30;82.70;;;;;;5005085;28;20035;-81
2021/06/26 04:46:27;;;;;;;26.92;18.27;;;15.40;82.10;;;;;;4931688;28;20024;-80
2021/06/26 04:48:52;;;;;;;22.30;17.33;;;15.50;82.50;;;;;;4933661;28;20039;-80
2021/06/26 04:51:19;;;;;;;19.60;15.93;;;15.70;80.90;;;;;;4953336;28;20043;-81
2021/06/26 04:53:44;;;;;;;21.60;17.55;;;15.80;80.70;;;;;;4925801;28;20047;-81
2021/06/26 04:56:10;;;;;;;22.55;17.83;;;15.90;80.40;;;;;;4946514;28;20043;-81
2021/06/26 04:58:35;;;;;;;22.42;18.45;;;16.00;81.20;;;;;;4928786;28;20036;-80
2021/06/26 05:01:01;;;;;;;22.15;16.23;;;16.10;80.90;;;;;;4956514;28;20040;-81
2021/06/26 05:03:26;;;;;;;33.55;19.25;;;16.20;80.70;;;;;;4959593;28;20064;-80
2021/06/26 05:05:52;;;;;;;20.92;16.90;;;16.30;81.30;;;;;;4921809;28;20044;-80
2021/06/26 05:08:17;;;;;;;24.92;17.98;;;16.60;81.50;;;;;;4982225;28;20055;-81
2021/06/26 05:10:43;;;;;;;21.60;17.60;;;16.80;81.80;;;;;;4925006;28;20012;-80
2021/06/26 05:13:09;;;;;;;22.77;17.45;;;17.00;83.50;;;;;;4932054;28;20428;-80
2021/06/26 05:15:35;;;;;;;21.55;17.92;;;17.30;84.50;;;;;;4989202;28;20047;-81
2021/06/26 05:18:00;;;;;;;21.58;18.38;;;17.40;84.40;;;;;;4958019;28;20039;-81
2021/06/26 05:20:26;;;;;;;22.15;17.70;;;17.50;85.00;;;;;;4939644;28;20093;-81
2021/06/26 05:22:51;;;;;;;25.35;18.38;;;17.80;86.30;;;;;;4938090;28;20028;-80
2021/06/26 05:25:17;;;;;;;26.95;17.80;;;17.90;84.90;;;;;;4922897;28;20032;-81
2021/06/26 05:27:43;;;;;;;25.70;17.92;;;18.00;84.10;;;;;;4929323;28;20032;-82
2021/06/26 05:30:09;;;;;;;22.40;18.15;;;18.10;84.50;;;;;;4930624;28;20036;-81
2021/06/26 05:32:35;;;;;;;22.38;17.70;;;18.40;85.40;;;;;;4937743;28;20031;-81
2021/06/26 05:35:00;;;;;;;24.83;18.70;;;18.60;84.00;;;;;;4945248;28;20036;-82
2021/06/26 05:37:26;;;;;;;24.70;18.23;;;18.80;83.00;;;;;;4946469;28;20092;-82
2021/06/26 05:39:51;;;;;;;25.92;18.90;;;19.10;84.70;;;;;;4944561;28;20028;-82
2021/06/26 05:42:17;;;;;;;24.67;18.20;;;19.40;85.10;;;;;;4915307;28;20040;-81
2021/06/26 05:44:43;;;;;;;25.58;18.58;;;19.70;86.40;;;;;;5015126;28;20421;-82
2021/06/26 05:47:08;;;;;;;27.63;20.48;;;20.00;86.20;;;;;;4993218;28;20265;-81
2021/06/26 05:49:34;;;;;;;26.65;19.73;;;20.30;84.60;;;;;;4946698;28;20035;-83
2021/06/26 05:51:59;;;;;;;24.65;18.00;;;20.50;84.40;;;;;;4994748;28;20055;-82
2021/06/26 05:54:25;;;;;;;24.98;19.48;;;20.60;82.10;;;;;;4917187;28;20042;-81
2021/06/26 05:56:50;;;;;;;28.73;19.63;;;20.80;82.30;;;;;;4905813;28;20040;-82
2021/06/26 05:59:16;;;;;;;25.15;19.23;;;21.00;83.50;;;;;;4919757;28;20040;-84
2021/06/26 06:01:41;;;;;;;27.95;20.38;;;21.10;81.70;;;;;;4941380;28;20035;-83
2021/06/26 06:04:07;;;;;;;26.60;20.30;;;21.20;82.20;;;;;;4925863;28;20035;-81
2021/06/26 06:06:33;;;;;;;25.65;18.85;;;21.30;82.20;;;;;;4941599;28;20565;-83
2021/06/26 06:08:59;;;;;;;26.33;19.42;;;21.40;81.40;;;;;;4931453;28;20048;-82
2021/06/26 06:11:24;;;;;;;25.90;19.85;;;21.50;80.80;;;;;;4923174;28;20253;-82
2021/06/26 06:13:50;;;;;;;23.42;18.85;;;21.60;80.90;;;;;;4934714;28;20518;-82
2021/06/26 06:16:17;;;;;;;28.92;21.50;;;21.60;80.90;;;;;;4917833;28;20063;-82
2021/06/26 06:18:43;;;;;;;25.90;20.45;;;21.80;81.30;;;;;;4920470;28;20510;-82
2021/06/26 06:21:08;;;;;;;28.75;20.98;;;21.90;80.50;;;;;;4908743;28;20028;-82
2021/06/26 06:23:34;;;;;;;28.60;20.95;;;22.20;80.60;;;;;;4941164;28;20502;-82
2021/06/26 06:25:59;;;;;;;25.17;18.90;;;22.30;79.90;;;;;;4913136;28;20101;-82
2021/06/26 06:28:25;;;;;;;27.20;21.55;;;22.50;79.80;;;;;;4928817;28;20115;-82
2021/06/26 06:30:50;;;;;;;34.40;22.25;;;22.50;79.00;;;;;;4901503;28;20462;-82
2021/06/26 06:33:16;;;;;;;30.52;22.23;;;22.60;79.00;;;;;;4968804;28;20123;-82
2021/06/26 06:35:41;;;;;;;28.20;18.92;;;22.80;79.60;;;;;;4920738;28;20102;-82
2021/06/26 06:38:07;;;;;;;30.48;23.60;;;23.00;78.00;;;;;;4924198;28;20024;-82
2021/06/26 06:40:32;;;;;;;26.98;20.77;;;23.20;78.40;;;;;;4893396;28;20032;-82
2021/06/26 06:42:58;;;;;;;33.15;24.80;;;23.60;77.50;;;;;;4934110;28;20035;-82
2021/06/26 06:45:23;;;;;;;34.17;23.92;;;23.80;77.20;;;;;;4917539;28;20424;-82
2021/06/26 06:47:49;;;;;;;35.17;25.30;;;23.90;76.30;;;;;;4927890;28;20407;-82
2021/06/26 06:50:15;;;;;;;31.38;23.20;;;24.10;76.20;;;;;;4923575;28;20111;-82
2021/06/26 06:52:40;;;;;;;28.65;22.90;;;24.20;75.30;;;;;;4914233;28;20131;-82
2021/06/26 06:55:06;;;;;;;31.65;23.10;;;24.50;73.90;;;;;;4921267;28;20510;-82
2021/06/26 06:57:32;;;;;;;33.50;22.85;;;24.70;73.60;;;;;;4936854;28;20051;-82
2021/06/26 06:59:57;;;;;;;29.50;23.15;;;24.90;72.70;;;;;;5009749;28;20490;-83
2021/06/26 07:02:24;;;;;;;27.58;20.83;;;25.10;73.30;;;;;;4938629;28;20028;-83
2021/06/26 07:04:49;;;;;;;32.25;22.55;;;25.30;72.50;;;;;;4947584;28;20570;-83
2021/06/26 07:07:15;;;;;;;23.77;20.15;;;25.50;72.50;;;;;;4926381;28;20033;-84
2021/06/26 07:09:41;;;;;;;25.58;20.42;;;25.80;70.60;;;;;;4928029;28;20170;-84
2021/06/26 07:12:06;;;;;;;23.17;19.55;;;26.00;70.30;;;;;;4937004;28;20085;-83
2021/06/26 07:14:32;;;;;;;20.77;17.15;;;26.20;69.60;;;;;;4903711;28;20105;-84
2021/06/26 07:16:57;;;;;;;17.25;14.07;;;26.30;69.90;;;;;;4931971;28;20047;-84
2021/06/26 07:19:23;;;;;;;20.30;16.10;;;26.30;68.80;;;;;;4902936;28;20047;-84
2021/06/26 07:21:49;;;;;;;15.43;13.80;;;26.60;68.80;;;;;;4921096;28;20036;-84
2021/06/26 07:24:14;;;;;;;21.17;16.67;;;27.10;68.20;;;;;;4987475;28;20131;-84
2021/06/26 07:26:40;;;;;;;18.42;15.18;;;27.40;66.80;;;;;;4949339;28;20112;-81
2021/06/26 07:29:06;;;;;;;18.92;16.13;;;27.70;66.30;;;;;;4932158;28;20035;-81
2021/06/26 07:31:31;;;;;;;15.52;11.63;;;27.90;65.70;;;;;;4907424;28;20309;-81
2021/06/26 07:33:57;;;;;;;21.85;17.35;;;28.10;64.30;;;;;;4930359;28;20556;-82
2021/06/26 07:36:23;;;;;;;20.98;16.60;;;27.80;65.10;;;;;;4922426;28;21107;-82
2021/06/26 07:38:48;;;;;;;23.63;14.98;;;28.40;63.90;;;;;;4905402;28;20511;-82
2021/06/26 07:41:14;;;;;;;15.93;14.18;;;28.60;63.20;;;;;;4918189;28;20074;-82
2021/06/26 07:43:39;;;;;;;16.58;11.85;;;28.70;62.40;;;;;;4975883;28;20543;-83
2021/06/26 07:46:06;;;;;;;23.13;17.33;;;29.00;60.80;;;;;;4933679;28;20062;-83
2021/06/26 07:48:31;;;;;;;16.20;13.57;;;29.20;59.70;;;;;;4985835;28;20032;-82
2021/06/26 07:50:57;;;;;;;21.65;15.63;;;29.30;60.20;;;;;;4951295;28;20043;-83
2021/06/26 07:53:22;;;;;;;20.38;16.00;;;29.40;59.80;;;;;;4927311;28;20032;-83
2021/06/26 07:55:51;;;;;;;12.32;11.05;;;29.60;58.70;;;;;;4931199;28;20026;-83
2021/06/26 07:58:20;;;;;;;18.80;14.50;;;29.70;58.90;;;;;;4998119;28;20035;-84
2021/06/26 08:00:47;;;;;;;13.82;10.10;;;29.90;58.30;;;;;;4927175;29;20051;-84
2021/06/26 08:03:12;;;;;;;16.50;13.57;;;30.10;58.30;;;;;;4932155;28;20040;-85
2021/06/26 08:05:38;;;;;;;13.95;12.43;;;30.30;57.90;;;;;;4911952;28;20424;-85
2021/06/26 08:08:04;;;;;;;13.73;12.00;;;30.40;56.30;;;;;;4912147;28;20411;-85
2021/06/26 08:10:29;;;;;;;11.35;10.15;;;30.50;56.00;;;;;;4916414;28;20511;-86
2021/06/26 08:12:55;;;;;;;9.30;8.05;;;30.80;55.60;;;;;;4908909;28;20402;-86
2021/06/26 08:15:21;;;;;;;10.02;8.70;;;30.90;54.80;;;;;;4946560;28;20032;-85
2021/06/26 08:17:47;;;;;;;12.27;9.57;;;31.20;54.60;;;;;;4959012;28;20453;-86
2021/06/26 08:20:12;;;;;;;8.15;7.35;;;31.30;53.30;;;;;;4941991;28;20044;-84
2021/06/26 08:22:39;;;;;;;12.40;9.95;;;31.50;51.40;;;;;;4994021;28;20032;-86
2021/06/26 08:25:06;;;;;;;7.75;6.75;;;31.50;51.60;;;;;;4931767;28;20060;-83
2021/06/26 08:27:31;;;;;;;12.68;9.35;;;31.70;52.20;;;;;;4914396;28;20048;-84
2021/06/26 08:29:57;;;;;;;12.48;8.82;;;31.90;51.60;;;;;;4920165;28;20042;-84
2021/06/26 08:32:22;;;;;;;7.95;7.13;;;32.00;49.10;;;;;;4943684;28;20029;-86
2021/06/26 08:34:48;;;;;;;9.02;7.57;;;32.10;49.40;;;;;;4979185;28;20083;-87
2021/06/26 08:37:13;;;;;;;9.05;7.65;;;32.10;49.40;;;;;;4916513;28;20526;-84
2021/06/26 08:39:39;;;;;;;7.15;6.28;;;32.30;48.80;;;;;;4948768;28;20035;-83
2021/06/26 08:42:06;;;;;;;7.85;6.00;;;32.40;48.50;;;;;;4992286;28;20070;-85
2021/06/26 08:44:31;;;;;;;8.38;7.22;;;32.20;49.40;;;;;;4927513;28;20047;-84
2021/06/26 08:46:57;;;;;;;8.95;7.10;;;32.00;50.20;;;;;;4927566;28;20035;-85
2021/06/26 08:49:22;;;;;;;8.07;6.05;;;32.60;47.30;;;;;;4943326;28;20385;-85
2021/06/26 08:51:48;;;;;;;9.10;7.20;;;32.80;47.60;;;;;;4992427;28;20031;-85
2021/06/26 08:54:15;;;;;;;8.00;7.25;;;32.70;48.30;;;;;;4913014;28;20040;-84
2021/06/26 08:56:41;;;;;;;6.47;5.97;;;33.20;46.80;;;;;;4917530;28;20032;-84
2021/06/26 08:59:07;;;;;;;9.88;8.18;;;33.10;47.10;;;;;;4948624;28;20036;-84
2021/06/26 09:01:34;;;;;;;7.53;6.80;;;33.20;45.90;;;;;;4919027;28;20503;-83
2021/06/26 09:04:07;;;;;;;8.20;6.90;;;33.50;45.20;;;;;;4945556;28;20036;-81
2021/06/26 09:06:44;;;;;;;9.90;7.00;;;33.70;44.10;;;;;;4974656;28;20042;-81
2021/06/26 09:09:10;;;;;;;6.22;5.53;;;33.80;44.70;;;;;;4949008;28;20055;-80
2021/06/26 09:11:35;;;;;;;6.70;4.95;;;33.60;45.70;;;;;;4949849;28;20029;-80
2021/06/26 09:14:01;;;;;;;6.60;5.85;;;33.90;45.70;;;;;;4920768;28;20648;-79
2021/06/26 09:16:26;;;;;;;8.95;7.00;;;33.60;46.40;;;;;;4920352;28;20530;-78
2021/06/26 09:18:54;;;;;;;6.97;6.22;;;34.10;43.80;;;;;;4933603;28;20047;-78
2021/06/26 09:21:27;;;;;;;7.55;6.28;;;34.10;43.30;;;;;;4998489;28;20036;-78
2021/06/26 09:24:09;;;;;;;5.65;5.15;;;34.10;42.90;;;;;;4935718;28;20040;-78
2021/06/26 09:26:35;;;;;;;5.97;5.47;;;34.00;43.10;;;;;;4938909;28;20086;-78
2021/06/26 09:29:27;;;;;;;5.38;4.97;;;33.70;43.40;;;;;;4954574;28;20024;-78
2021/06/26 09:32:00;;;;;;;6.75;5.78;;;33.40;44.70;;;;;;4915317;28;20039;-78
2021/06/26 09:34:38;;;;;;;7.38;5.50;;;33.30;43.90;;;;;;4920881;28;20524;-79
2021/06/26 09:37:08;;;;;;;6.78;6.05;;;33.00;44.40;;;;;;5005625;28;20119;-78
2021/06/26 09:39:41;;;;;;;7.57;5.60;;;32.90;44.10;;;;;;5004270;28;20512;-78
2021/06/26 09:42:20;;;;;;;6.03;5.47;;;32.70;44.50;;;;;;4934394;28;20040;-78
2021/06/26 09:44:57;;;;;;;6.78;6.15;;;32.50;45.20;;;;;;4925260;28;20047;-78
2021/06/26 09:47:30;;;;;;;6.00;5.40;;;32.40;44.40;;;;;;4920470;28;20386;-78
2021/06/26 09:50:19;;;;;;;6.15;5.60;;;32.20;45.20;;;;;;4984755;28;20046;-78
2021/06/26 09:53:03;;;;;;;7.57;6.25;;;32.20;44.10;;;;;;4920834;28;20512;-78
2021/06/26 09:55:31;;;;;;;6.50;5.90;;;32.20;43.90;;;;;;4920746;28;20036;-78
2021/06/26 09:58:07;;;;;;;7.28;6.15;;;32.10;44.40;;;;;;4924936;28;20039;-78
2021/06/26 10:00:33;;;;;;;7.18;6.22;;;32.10;43.70;;;;;;4917607;28;20539;-78
2021/06/26 10:02:58;;;;;;;6.40;5.80;;;32.20;43.60;;;;;;4934491;28;20594;-78
2021/06/26 10:05:24;;;;;;;6.15;5.55;;;32.10;43.50;;;;;;4934344;28;20050;-78
2021/06/26 10:07:52;;;;;;;6.45;5.78;;;32.10;43.00;;;;;;4983452;28;20094;-78
2021/06/26 10:10:19;;;;;;;6.40;5.88;;;32.00;43.20;;;;;;5006682;28;20027;-78
2021/06/26 10:12:45;;;;;;;6.05;5.47;;;31.90;43.80;;;;;;4944471;28;20130;-78
2021/06/26 10:15:11;;;;;;;6.38;5.78;;;31.80;43.70;;;;;;4927100;28;20036;-78
2021/06/26 10:17:37;;;;;;;6.97;6.43;;;31.80;43.70;;;;;;4910093;28;20031;-78
2021/06/26 10:20:04;;;;;;;5.78;5.28;;;31.80;43.50;;;;;;4940078;28;20194;-78
2021/06/26 10:22:30;;;;;;;7.57;6.70;;;31.80;43.10;;;;;;4909739;28;20346;-78
2021/06/26 10:24:55;;;;;;;6.38;5.78;;;31.80;42.80;;;;;;4905320;28;20035;-78
2021/06/26 10:27:22;;;;;;;6.35;5.68;;;31.80;42.50;;;;;;4926771;28;20399;-78
2021/06/26 10:29:47;;;;;;;8.95;5.88;;;31.80;42.40;;;;;;4999192;28;20090;-78
2021/06/26 10:32:17;;;;;;;6.57;5.97;;;31.90;42.20;;;;;;4952525;28;20039;-77
2021/06/26 10:34:49;;;;;;;6.00;5.40;;;31.90;42.00;;;;;;4919287;28;20033;-78
2021/06/26 10:37:20;;;;;;;7.38;5.78;;;32.00;42.30;;;;;;4917369;28;20044;-78
2021/06/26 10:39:45;;;;;;;6.60;6.00;;;32.00;42.40;;;;;;4910021;28;20503;-77
2021/06/26 10:42:20;;;;;;;6.50;5.90;;;32.10;41.90;;;;;;4936727;28;20044;-78
2021/06/26 10:44:46;;;;;;;5.55;5.10;;;32.10;41.80;;;;;;4988208;28;20478;-77
2021/06/26 10:47:12;;;;;;;5.30;4.90;;;32.00;42.40;;;;;;4939496;28;20545;-77
2021/06/26 10:49:38;;;;;;;6.20;5.68;;;32.00;43.00;;;;;;4936752;28;20039;-78
2021/06/26 10:52:16;;;;;;;6.85;5.60;;;32.20;43.30;;;;;;4955136;28;20373;-77
2021/06/26 10:54:54;;;;;;;7.00;6.13;;;32.30;43.30;;;;;;4923029;28;20037;-78
2021/06/26 10:57:20;;;;;;;6.80;5.85;;;32.60;42.30;;;;;;5001345;28;20121;-79
2021/06/26 10:59:56;;;;;;;5.85;5.32;;;32.90;41.70;;;;;;5001175;28;20079;-79
2021/06/26 11:02:21;;;;;;;6.38;5.43;;;32.90;41.50;;;;;;4990282;28;20037;-79
2021/06/26 11:04:53;;;;;;;5.95;5.40;;;33.00;42.00;;;;;;4891512;28;20130;-80
2021/06/26 11:07:18;;;;;;;6.95;5.97;;;33.30;41.50;;;;;;4999010;28;20036;-79
2021/06/26 11:09:48;;;;;;;7.88;5.85;;;33.40;40.80;;;;;;4925726;28;20375;-78
2021/06/26 11:12:18;;;;;;;6.57;5.88;;;33.70;40.10;;;;;;5003181;28;20039;-78
2021/06/26 11:14:48;;;;;;;7.55;6.25;;;33.80;39.80;;;;;;4913428;28;20404;-78
2021/06/26 11:17:14;;;;;;;6.97;5.90;;;34.10;38.90;;;;;;4913010;28;20552;-78
2021/06/26 11:19:39;;;;;;;6.13;5.60;;;34.10;38.70;;;;;;4919829;28;20063;-78
2021/06/26 11:22:05;;;;;;;6.28;5.43;;;34.30;37.10;;;;;;4945983;28;20036;-78
2021/06/26 11:24:37;;;;;;;5.75;5.25;;;34.30;38.30;;;;;;4939183;28;20075;-78
2021/06/26 11:27:03;;;;;;;5.15;4.65;;;34.40;39.60;;;;;;4936000;28;20170;-78
2021/06/26 11:29:29;;;;;;;5.63;5.13;;;34.30;39.80;;;;;;4927040;28;20032;-78
2021/06/26 11:31:56;;;;;;;5.18;4.70;;;34.50;39.10;;;;;;4915784;28;20032;-78
2021/06/26 11:34:21;;;;;;;7.45;5.72;;;34.70;38.80;;;;;;4930507;28;20035;-78
2021/06/26 11:37:04;;;;;;;6.20;5.60;;;35.10;38.40;;;;;;4248292;28;10000319;-78
2021/06/26 11:39:30;;;;;;;6.97;5.53;;;35.20;37.80;;;;;;4926310;28;20039;-78
2021/06/26 11:41:56;;;;;;;4.95;4.55;;;35.40;37.70;;;;;;5001576;28;20035;-77
2021/06/26 11:44:35;;;;;;;5.63;5.13;;;35.50;38.00;;;;;;4998144;28;20044;-77
2021/06/26 11:47:02;;;;;;;8.43;6.00;;;35.70;37.20;;;;;;4917235;28;20048;-77
2021/06/26 11:49:32;;;;;;;5.63;5.10;;;35.90;35.30;;;;;;4919554;28;20046;-77
2021/06/26 11:51:58;;;;;;;8.23;5.90;;;36.00;36.40;;;;;;4982405;28;20381;-78
2021/06/26 11:54:23;;;;;;;6.22;5.28;;;36.10;36.30;;;;;;4952207;28;20043;-77
2021/06/26 11:56:50;;;;;;;5.53;5.03;;;36.30;36.10;;;;;;4931671;28;20047;-77
2021/06/26 11:59:16;;;;;;;6.00;5.50;;;36.20;36.30;;;;;;4913698;28;20150;-77
2021/06/26 12:01:42;;;;;;;7.90;5.15;;;36.20;35.80;;;;;;4926718;28;20135;-77
2021/06/26 12:04:07;;;;;;;5.95;5.45;;;36.40;36.30;;;;;;4983553;28;20040;-77
2021/06/26 12:06:34;;;;;;;5.75;4.80;;;36.70;36.50;;;;;;4917864;28;20097;-77
2021/06/26 12:09:01;;;;;;;5.00;4.60;;;36.80;35.50;;;;;;4938079;28;20058;-77
2021/06/26 12:11:28;;;;;;;6.10;5.55;;;36.60;36.00;;;;;;4929883;28;20040;-76
2021/06/26 12:13:58;;;;;;;6.65;5.70;;;36.60;34.90;;;;;;4998756;28;20377;-77
2021/06/26 12:16:31;;;;;;;5.00;4.50;;;36.60;34.20;;;;;;4985094;28;20032;-76
2021/06/26 12:18:58;;;;;;;5.43;4.93;;;36.60;34.00;;;;;;4982650;28;20047;-77
2021/06/26 12:21:26;;;;;;;5.65;5.03;;;36.40;35.50;;;;;;4928122;28;20044;-77
2021/06/26 12:23:52;;;;;;;5.97;5.43;;;36.30;35.30;;;;;;4933155;28;20036;-77
2021/06/26 12:26:24;;;;;;;4.55;4.15;;;36.50;35.60;;;;;;4991059;28;20036;-77
2021/06/26 12:28:50;;;;;;;6.85;4.97;;;36.40;35.80;;;;;;4919101;28;20036;-76
2021/06/26 12:31:16;;;;;;;5.97;5.00;;;36.30;35.70;;;;;;4983759;28;20394;-76